createdAt,value
2023-08-05T00:01:42.902Z,96.76
2023-08-05T00:04:11.685Z,97.12
2023-08-05T00:06:40.730Z,98.26
2023-08-05T00:09:09.388Z,98.47
2023-08-05T00:11:38.125Z,98.78
2023-08-05T00:14:06.879Z,98.51
2023-08-05T00:16:35.655Z,98.92
2023-08-05T00:19:04.450Z,100.00
2023-08-05T00:21:33.261Z,99.81
2023-08-05T00:24:02.116Z,100.00
2023-08-05T00:26:30.913Z,99.76
2023-08-05T00:28:59.641Z,100.00
2023-08-05T00:31:28.475Z,100.00
2023-08-05T00:33:57.255Z,100.00
2023-08-05T00:36:26.039Z,100.00
2023-08-05T00:38:54.813Z,100.00
2023-08-05T00:41:23.641Z,100.00
2023-08-05T00:43:52.346Z,100.00
2023-08-05T00:46:24.438Z,100.00
2023-08-05T00:48:54.423Z,100.00
2023-08-05T00:51:23.281Z,100.00
2023-08-05T00:53:52.182Z,100.00
2023-08-05T00:56:20.970Z,100.00
2023-08-05T00:58:49.711Z,100.00
2023-08-05T01:01:19.035Z,100.00
2023-08-05T01:03:48.221Z,100.00
2023-08-05T01:06:18.201Z,100.00
2023-08-05T01:08:47.995Z,100.00
2023-08-05T01:11:17.587Z,100.00
2023-08-05T01:13:46.576Z,100.00
2023-08-05T01:16:15.377Z,100.00
2023-08-05T01:18:44.395Z,100.00
2023-08-05T01:21:26.932Z,100.00
2023-08-05T01:24:36.190Z,100.00
2023-08-05T01:27:06.750Z,100.00
2023-08-05T01:29:35.796Z,100.00
2023-08-05T01:32:06.876Z,100.00
2023-08-05T01:34:35.939Z,100.00
2023-08-05T01:37:05.187Z,100.00
2023-08-05T01:39:34.429Z,100.00
2023-08-05T01:42:03.380Z,100.00
2023-08-05T01:44:32.164Z,100.00
2023-08-05T01:47:00.982Z,100.00
2023-08-05T01:49:29.748Z,100.00
2023-08-05T01:51:59.644Z,100.00
2023-08-05T01:54:28.410Z,100.00
2023-08-05T01:56:57.203Z,100.00
2023-08-05T01:59:25.962Z,100.00
2023-08-05T02:01:54.768Z,100.00
2023-08-05T02:04:23.606Z,100.00
2023-08-05T02:06:52.739Z,100.00
2023-08-05T02:09:21.793Z,100.00
2023-08-05T02:11:50.589Z,100.00
2023-08-05T02:14:20.497Z,100.00
2023-08-05T02:16:49.614Z,100.00
2023-08-05T02:19:20.547Z,100.00
2023-08-05T02:21:50.032Z,100.00
2023-08-05T02:24:18.754Z,100.00
2023-08-05T02:26:49.211Z,100.00
2023-08-05T02:29:18.202Z,100.00
2023-08-05T02:31:46.914Z,100.00
2023-08-05T02:34:15.588Z,100.00
2023-08-05T02:36:44.359Z,100.00
2023-08-05T02:39:13.744Z,100.00
2023-08-05T02:41:42.858Z,100.00
2023-08-05T02:44:11.509Z,100.00
2023-08-05T02:46:40.240Z,100.00
2023-08-05T02:49:10.069Z,100.00
2023-08-05T02:51:38.920Z,100.00
2023-08-05T02:54:07.686Z,100.00
2023-08-05T02:56:36.417Z,100.00
2023-08-05T02:59:05.119Z,100.00
2023-08-05T03:01:33.866Z,100.00
2023-08-05T03:04:02.609Z,100.00
2023-08-05T03:06:31.434Z,100.00
2023-08-05T03:09:00.330Z,100.00
2023-08-05T03:11:34.426Z,100.00
2023-08-05T03:14:03.616Z,100.00
2023-08-05T03:16:32.688Z,100.00
2023-08-05T03:19:05.739Z,100.00
2023-08-05T03:21:34.895Z,100.00
2023-08-05T03:24:04.009Z,100.00
2023-08-05T03:26:33.364Z,100.00
2023-08-05T03:29:05.379Z,100.00
2023-08-05T03:31:34.400Z,100.00
2023-08-05T03:34:03.354Z,100.00
2023-08-05T03:36:32.877Z,100.00
2023-08-05T03:39:01.637Z,100.00
2023-08-05T03:41:30.937Z,100.00
2023-08-05T03:44:00.399Z,100.00
2023-08-05T03:46:29.959Z,100.00
2023-08-05T03:48:59.173Z,100.00
2023-08-05T03:51:28.451Z,100.00
2023-08-05T03:53:58.258Z,100.00
2023-08-05T03:56:28.732Z,100.00
2023-08-05T03:58:58.898Z,100.00
2023-08-05T04:01:28.382Z,100.00
2023-08-05T04:03:57.685Z,100.00
2023-08-05T04:06:27.054Z,100.00
2023-08-05T04:08:55.895Z,100.00
2023-08-05T04:11:24.726Z,100.00
2023-08-05T04:13:54.299Z,100.00
2023-08-05T04:16:24.653Z,100.00
2023-08-05T04:18:53.828Z,100.00
2023-08-05T04:21:26.496Z,100.00
2023-08-05T04:23:55.987Z,100.00
2023-08-05T04:26:25.723Z,100.00
2023-08-05T04:28:54.806Z,100.00
2023-08-05T04:31:23.635Z,100.00
2023-08-05T04:33:52.513Z,100.00
2023-08-05T04:36:21.241Z,100.00
2023-08-05T04:38:50.005Z,100.00
2023-08-05T04:41:18.806Z,100.00
2023-08-05T04:43:47.602Z,100.00
2023-08-05T04:46:16.375Z,100.00
2023-08-05T04:48:45.190Z,100.00
2023-08-05T04:51:13.945Z,100.00
2023-08-05T04:53:42.689Z,100.00
2023-08-05T04:56:12.117Z,100.00
2023-08-05T04:58:40.825Z,100.00
2023-08-05T05:01:09.572Z,100.00
2023-08-05T05:03:38.387Z,100.00
2023-08-05T05:06:07.458Z,100.00
2023-08-05T05:08:36.232Z,100.00
2023-08-05T05:11:04.980Z,100.00
2023-08-05T05:13:33.700Z,100.00
2023-08-05T05:16:04.584Z,100.00
2023-08-05T05:18:33.664Z,100.00
2023-08-05T05:21:02.718Z,100.00
2023-08-05T05:23:31.576Z,100.00
2023-08-05T05:26:00.429Z,100.00
2023-08-05T05:28:29.384Z,100.00
2023-08-05T05:30:59.578Z,100.00
2023-08-05T05:33:28.351Z,100.00
2023-08-05T05:35:57.084Z,100.00
2023-08-05T05:38:25.790Z,100.00
2023-08-05T05:40:57.440Z,100.00
2023-08-05T05:43:26.179Z,100.00
2023-08-05T05:45:54.963Z,100.00
2023-08-05T05:48:23.721Z,100.00
2023-08-05T05:50:55.542Z,100.00
2023-08-05T05:53:24.404Z,100.00
2023-08-05T05:55:56.153Z,100.00
2023-08-05T05:58:24.996Z,100.00
2023-08-05T06:00:57.081Z,100.00
2023-08-05T06:03:26.049Z,100.00
2023-08-05T06:05:56.921Z,100.00
2023-08-05T06:08:25.765Z,100.00
2023-08-05T06:10:54.933Z,100.00
2023-08-05T06:13:24.085Z,100.00
2023-08-05T06:15:55.360Z,100.00
2023-08-05T06:18:24.141Z,100.00
2023-08-05T06:20:52.916Z,100.00
2023-08-05T06:23:21.762Z,100.00
2023-08-05T06:25:50.509Z,100.00
2023-08-05T06:28:19.288Z,100.00
2023-08-05T06:30:48.155Z,100.00
2023-08-05T06:33:16.835Z,100.00
2023-08-05T06:35:45.797Z,100.00
2023-08-05T06:38:14.591Z,100.00
2023-08-05T06:40:43.373Z,100.00
2023-08-05T06:43:12.190Z,100.00
2023-08-05T06:45:41.039Z,100.00
2023-08-05T06:48:09.872Z,100.00
2023-08-05T06:50:38.621Z,100.00
2023-08-05T06:53:07.327Z,100.00
2023-08-05T06:55:36.066Z,100.00
2023-08-05T06:58:04.861Z,100.00
2023-08-05T07:00:33.721Z,100.00
2023-08-05T07:03:05.256Z,100.00
2023-08-05T07:05:34.316Z,100.00
2023-08-05T07:08:03.186Z,100.00
2023-08-05T07:10:32.017Z,100.00
2023-08-05T07:13:03.446Z,100.00
2023-08-05T07:15:32.492Z,100.00
2023-08-05T07:18:01.275Z,100.00
2023-08-05T07:20:30.046Z,99.25
2023-08-05T07:22:59.006Z,97.65
2023-08-05T07:25:27.812Z,96.41
2023-08-05T07:27:56.658Z,96.17
2023-08-05T07:30:25.450Z,97.27
2023-08-05T07:32:54.216Z,96.88
2023-08-05T07:35:23.064Z,96.02
2023-08-05T07:37:53.632Z,96.30
2023-08-05T07:40:22.585Z,93.52
2023-08-05T07:42:51.454Z,92.82
2023-08-05T07:45:22.480Z,90.65
2023-08-05T07:47:53.295Z,90.89
2023-08-05T07:50:24.133Z,87.09
2023-08-05T07:52:54.953Z,83.07
2023-08-05T07:55:25.777Z,82.28
2023-08-05T07:57:54.779Z,81.09
2023-08-05T08:00:23.634Z,81.36
2023-08-05T08:02:52.557Z,80.13
2023-08-05T08:05:21.465Z,80.18
2023-08-05T08:07:51.555Z,80.20
2023-08-05T08:10:21.940Z,81.47
2023-08-05T08:12:51.358Z,79.10
2023-08-05T08:15:20.190Z,77.21
2023-08-05T08:17:48.973Z,76.71
2023-08-05T08:20:17.892Z,75.74
2023-08-05T08:22:46.686Z,74.97
2023-08-05T08:25:15.573Z,75.62
2023-08-05T08:27:44.315Z,74.47
2023-08-05T08:30:14.054Z,73.97
2023-08-05T08:32:42.872Z,74.90
2023-08-05T08:35:14.251Z,73.40
2023-08-05T08:37:43.670Z,72.70
2023-08-05T08:40:13.263Z,73.13
2023-08-05T08:42:44.255Z,72.17
2023-08-05T08:45:16.522Z,72.28
2023-08-05T08:47:47.948Z,71.08
2023-08-05T08:50:18.976Z,70.75
2023-08-05T08:52:49.698Z,69.58
2023-08-05T08:55:20.049Z,69.65
2023-08-05T09:00:17.682Z,68.66
2023-08-05T09:02:47.205Z,67.99
2023-08-05T09:05:16.285Z,67.56
2023-08-05T09:07:45.406Z,67.22
2023-08-05T09:10:14.549Z,67.07
2023-08-05T09:12:44.616Z,67.61
2023-08-05T09:15:16.611Z,67.13
2023-08-05T09:17:46.059Z,66.03
2023-08-05T09:20:22.894Z,64.74
2023-08-05T09:22:57.178Z,66.04
2023-08-05T09:25:25.946Z,66.39
2023-08-05T09:27:55.012Z,65.18
2023-08-05T09:30:25.919Z,64.78
2023-08-05T09:32:55.435Z,65.40
2023-08-05T09:35:26.655Z,65.88
2023-08-05T09:37:56.250Z,65.33
2023-08-05T09:40:35.231Z,64.26
2023-08-05T09:43:05.026Z,63.10
2023-08-05T09:45:36.810Z,63.28
2023-08-05T09:48:11.457Z,63.51
2023-08-05T09:50:41.812Z,63.29
2023-08-05T09:53:11.913Z,62.38
2023-08-05T09:55:40.772Z,61.72
2023-08-05T09:58:10.383Z,62.22
2023-08-05T10:00:43.170Z,62.99
2023-08-05T10:03:15.421Z,61.94
2023-08-05T10:05:46.533Z,61.36
2023-08-05T10:08:17.780Z,61.94
2023-08-05T10:10:48.529Z,61.21
2023-08-05T10:13:21.532Z,60.98
2023-08-05T10:15:55.350Z,60.76
2023-08-05T10:18:27.759Z,61.28
2023-08-05T10:20:57.058Z,61.98
2023-08-05T10:23:27.429Z,62.40
2023-08-05T10:26:02.753Z,62.37
2023-08-05T10:28:39.430Z,61.08
2023-08-05T10:31:29.500Z,59.47
2023-08-05T10:34:11.693Z,58.70
2023-08-05T10:36:49.910Z,58.15
2023-08-05T10:39:45.929Z,57.13
2023-08-05T10:42:37.040Z,57.02
2023-08-05T10:45:06.892Z,56.63
2023-08-05T10:47:35.926Z,55.44
2023-08-05T10:50:05.083Z,54.91
2023-08-05T10:52:37.724Z,54.58
2023-08-05T10:55:13.845Z,55.18
2023-08-05T10:57:42.713Z,55.29
2023-08-05T11:00:20.418Z,53.94
2023-08-05T11:03:10.134Z,52.89
2023-08-05T11:05:39.597Z,53.13
2023-08-05T11:08:09.030Z,52.83
2023-08-05T11:10:38.667Z,53.00
2023-08-05T11:13:08.253Z,52.55
2023-08-05T11:15:45.348Z,51.74
2023-08-05T11:18:14.454Z,50.47
2023-08-05T11:20:44.254Z,50.27
2023-08-05T11:23:16.309Z,48.94
2023-08-05T11:25:48.591Z,49.01
2023-08-05T11:28:17.848Z,48.56
2023-08-05T11:30:46.611Z,48.89
2023-08-05T11:33:15.357Z,48.41
2023-08-05T11:35:49.955Z,47.41
2023-08-05T11:38:20.445Z,46.49
2023-08-05T11:40:52.956Z,46.26
2023-08-05T11:43:23.111Z,46.90
2023-08-05T11:45:56.074Z,45.27
2023-08-05T11:48:27.708Z,43.33
2023-08-05T11:51:03.257Z,43.34
2023-08-05T11:53:31.983Z,42.82
2023-08-05T11:56:00.777Z,42.32
2023-08-05T11:58:34.279Z,42.49
2023-08-05T12:01:04.680Z,43.30
2023-08-05T12:03:34.549Z,44.97
2023-08-05T12:06:05.344Z,46.35
2023-08-05T12:08:44.063Z,45.35
2023-08-05T12:11:15.445Z,43.88
2023-08-05T12:13:46.194Z,43.31
2023-08-05T12:16:18.299Z,42.08
2023-08-05T12:18:48.274Z,42.12
2023-08-05T12:21:16.985Z,41.74
2023-08-05T12:23:45.918Z,41.49
2023-08-05T12:26:16.862Z,41.16
2023-08-05T12:28:45.577Z,40.14
2023-08-05T12:31:14.866Z,39.90
2023-08-05T12:33:43.614Z,39.47
2023-08-05T12:36:12.307Z,38.40
2023-08-05T12:38:41.007Z,38.28
2023-08-05T12:41:09.628Z,38.00
2023-08-05T12:43:38.526Z,36.77
2023-08-05T12:46:07.358Z,35.86
2023-08-05T12:48:36.279Z,35.43
2023-08-05T12:51:05.483Z,36.50
2023-08-05T12:53:34.374Z,37.25
2023-08-05T12:56:03.255Z,37.61
2023-08-05T12:58:31.989Z,37.95
2023-08-05T13:01:00.861Z,37.31
2023-08-05T13:03:30.285Z,37.50
2023-08-05T13:06:00.789Z,36.89
2023-08-05T13:08:29.577Z,35.94
2023-08-05T13:10:58.424Z,36.81
2023-08-05T13:13:27.629Z,36.73
2023-08-05T13:15:56.589Z,36.54
2023-08-05T13:18:25.405Z,36.07
2023-08-05T13:20:54.067Z,35.28
2023-08-05T13:23:22.928Z,35.06
2023-08-05T13:25:51.654Z,33.91
2023-08-05T13:28:20.371Z,33.45
2023-08-05T13:30:49.133Z,33.27
2023-08-05T13:33:17.886Z,33.59
2023-08-05T13:35:48.340Z,34.10
2023-08-05T13:38:17.055Z,33.87
2023-08-05T13:40:59.024Z,34.03
2023-08-05T13:43:28.303Z,34.59
2023-08-05T13:45:58.041Z,34.39
2023-08-05T13:48:26.933Z,34.66
2023-08-05T13:51:09.220Z,34.58
2023-08-05T13:53:39.130Z,35.34
2023-08-05T13:56:08.127Z,35.34
2023-08-05T13:58:36.911Z,35.43
2023-08-05T14:01:06.129Z,35.53
2023-08-05T14:03:34.981Z,35.87
2023-08-05T14:06:03.788Z,35.06
2023-08-05T14:08:32.701Z,35.86
2023-08-05T14:11:01.456Z,35.53
2023-08-05T14:13:30.445Z,35.09
2023-08-05T14:15:59.373Z,34.09
2023-08-05T14:18:28.175Z,33.83
2023-08-05T14:20:57.241Z,33.61
2023-08-05T14:23:26.099Z,32.88
2023-08-05T14:25:54.987Z,33.50
2023-08-05T14:28:23.653Z,33.88
2023-08-05T14:30:52.318Z,33.20
2023-08-05T14:33:21.174Z,32.75
2023-08-05T14:35:49.861Z,32.31
2023-08-05T14:38:19.728Z,31.56
2023-08-05T14:40:48.457Z,31.55
2023-08-05T14:43:17.248Z,32.93
2023-08-05T14:45:45.972Z,32.82
2023-08-05T14:48:14.668Z,31.91
2023-08-05T14:50:43.375Z,31.00
2023-08-05T14:53:12.321Z,30.81
2023-08-05T14:55:41.336Z,31.48
2023-08-05T14:58:10.197Z,30.63
2023-08-05T15:00:39.130Z,29.45
2023-08-05T15:03:08.242Z,28.54
2023-08-05T15:05:37.491Z,28.11
2023-08-05T15:08:06.295Z,28.18
2023-08-05T15:10:34.974Z,27.40
2023-08-05T15:13:03.744Z,26.98
2023-08-05T15:15:32.450Z,26.57
2023-08-05T15:18:01.208Z,26.02
2023-08-05T15:20:30.033Z,25.64
2023-08-05T15:22:58.727Z,25.11
2023-08-05T15:25:27.444Z,25.99
2023-08-05T15:27:56.139Z,25.56
2023-08-05T15:30:24.955Z,25.56
2023-08-05T15:32:53.738Z,25.35
2023-08-05T15:35:22.457Z,25.14
2023-08-05T15:37:51.711Z,24.61
2023-08-05T15:40:21.048Z,25.41
2023-08-05T15:42:49.812Z,25.19
2023-08-05T15:45:18.523Z,25.69
2023-08-05T15:47:47.344Z,25.92
2023-08-05T15:50:19.721Z,26.09
2023-08-05T15:52:50.257Z,26.32
2023-08-05T15:55:19.009Z,26.12
2023-08-05T15:57:48.286Z,26.14
2023-08-05T16:00:17.289Z,26.11
2023-08-05T16:02:46.006Z,25.74
2023-08-05T16:05:14.817Z,26.62
2023-08-05T16:07:43.820Z,27.09
2023-08-05T16:10:12.599Z,27.46
2023-08-05T16:12:41.347Z,27.83
2023-08-05T16:15:10.553Z,28.05
2023-08-05T16:17:39.290Z,28.11
2023-08-05T16:20:08.479Z,28.23
2023-08-05T16:22:37.169Z,28.88
2023-08-05T16:25:06.594Z,29.73
2023-08-05T16:27:37.427Z,29.44
2023-08-05T16:30:07.079Z,29.91
2023-08-05T16:32:36.566Z,30.13
2023-08-05T16:35:08.616Z,30.08
2023-08-05T16:37:37.341Z,29.73
2023-08-05T16:40:07.523Z,29.88
2023-08-05T16:42:36.414Z,29.38
2023-08-05T16:45:06.109Z,29.80
2023-08-05T16:47:35.097Z,30.09
2023-08-05T16:50:04.323Z,30.28
2023-08-05T16:52:33.048Z,30.47
2023-08-05T16:55:01.962Z,30.96
2023-08-05T16:57:30.862Z,30.95
2023-08-05T16:59:59.765Z,31.39
2023-08-05T17:02:28.530Z,31.90
2023-08-05T17:04:57.350Z,32.42
2023-08-05T17:07:26.171Z,32.76
2023-08-05T17:09:55.114Z,33.39
2023-08-05T17:12:24.021Z,34.06
2023-08-05T17:14:52.803Z,35.15
2023-08-05T17:17:22.826Z,36.10
2023-08-05T17:19:51.675Z,36.23
2023-08-05T17:22:20.790Z,36.63
2023-08-05T17:24:49.973Z,36.98
2023-08-05T17:27:18.666Z,37.11
2023-08-05T17:29:47.272Z,37.24
2023-08-05T17:32:17.929Z,37.81
2023-08-05T17:34:47.458Z,38.08
2023-08-05T17:37:16.158Z,38.50
2023-08-05T17:39:44.862Z,39.18
2023-08-05T17:42:13.642Z,39.59
2023-08-05T17:44:42.364Z,39.96
2023-08-05T17:47:11.036Z,39.99
2023-08-05T17:49:39.729Z,39.98
2023-08-05T17:52:08.721Z,40.15
2023-08-05T17:54:37.412Z,40.13
2023-08-05T17:57:06.855Z,40.45
2023-08-05T17:59:35.612Z,40.77
2023-08-05T18:02:04.521Z,41.35
2023-08-05T18:04:33.359Z,41.06
2023-08-05T18:07:02.076Z,41.29
2023-08-05T18:09:31.137Z,41.84
2023-08-05T18:11:59.886Z,42.30
2023-08-05T18:14:28.600Z,43.40
2023-08-05T18:16:57.430Z,43.47
2023-08-05T18:19:26.152Z,43.95
2023-08-05T18:21:54.979Z,44.38
2023-08-05T18:24:23.700Z,45.34
2023-08-05T18:26:52.412Z,45.68
2023-08-05T18:29:21.142Z,45.68
2023-08-05T18:31:49.914Z,46.75
2023-08-05T18:34:18.686Z,47.08
2023-08-05T18:36:47.432Z,47.73
2023-08-05T18:39:16.145Z,47.86
2023-08-05T18:41:47.052Z,48.19
2023-08-05T18:44:17.309Z,48.27
2023-08-05T18:46:45.943Z,49.12
2023-08-05T18:49:14.579Z,49.77
2023-08-05T18:51:43.232Z,50.40
2023-08-05T18:54:11.868Z,50.45
2023-08-05T18:56:40.513Z,51.10
2023-08-05T18:59:11.029Z,51.70
2023-08-05T19:01:40.442Z,52.03
2023-08-05T19:04:09.274Z,52.72
2023-08-05T19:06:38.273Z,52.56
2023-08-05T19:09:09.213Z,53.15
2023-08-05T19:11:38.316Z,53.32
2023-08-05T19:14:07.000Z,54.04
2023-08-05T19:16:35.668Z,54.41
2023-08-05T19:19:04.750Z,55.23
2023-08-05T19:21:33.370Z,55.54
2023-08-05T19:24:02.110Z,56.37
2023-08-05T19:26:30.839Z,57.36
2023-08-05T19:28:59.533Z,58.03
2023-08-05T19:31:28.376Z,58.70
2023-08-05T19:33:57.066Z,58.74
2023-08-05T19:36:26.037Z,59.60
2023-08-05T19:38:54.705Z,59.98
2023-08-05T19:41:23.373Z,60.84
2023-08-05T19:43:52.043Z,61.55
2023-08-05T19:46:20.714Z,61.62
2023-08-05T19:48:49.372Z,63.43
2023-08-05T19:51:18.093Z,63.43
2023-08-05T19:53:48.230Z,63.94
2023-08-05T19:56:17.030Z,64.06
2023-08-05T19:58:46.544Z,64.54
2023-08-05T20:01:15.384Z,64.25
2023-08-05T20:03:44.157Z,65.23
2023-08-05T20:06:12.894Z,65.68
2023-08-05T20:08:41.681Z,64.83
2023-08-05T20:11:10.436Z,65.63
2023-08-05T20:13:39.144Z,65.89
2023-08-05T20:16:07.853Z,66.09
2023-08-05T20:18:36.696Z,66.87
2023-08-05T20:21:06.048Z,67.71
2023-08-05T20:23:35.223Z,68.12
2023-08-05T20:26:10.709Z,68.69
2023-08-05T20:28:39.477Z,69.65
2023-08-05T20:31:08.358Z,70.09
2023-08-05T20:33:37.345Z,70.93
2023-08-05T20:36:11.244Z,71.68
2023-08-05T20:38:40.415Z,73.79
2023-08-05T20:41:09.091Z,75.34
2023-08-05T20:43:37.837Z,76.52
2023-08-05T20:46:12.474Z,78.34
2023-08-05T20:48:48.194Z,79.09
2023-08-05T20:51:17.991Z,79.69
2023-08-05T20:53:46.857Z,80.64
2023-08-05T20:56:15.697Z,81.96
2023-08-05T20:58:44.444Z,82.66
2023-08-05T21:01:13.980Z,83.32
2023-08-05T21:03:42.764Z,84.30
2023-08-05T21:06:11.537Z,85.33
2023-08-05T21:08:40.277Z,85.89
2023-08-05T21:11:10.794Z,86.45
2023-08-05T21:13:41.223Z,86.80
2023-08-05T21:16:11.009Z,87.83
2023-08-05T21:18:39.683Z,88.97
2023-08-05T21:21:08.343Z,88.95
2023-08-05T21:23:37.082Z,89.92
2023-08-05T21:26:05.792Z,90.41
2023-08-05T21:28:34.891Z,90.75
2023-08-05T21:31:03.889Z,90.55
2023-08-05T21:33:32.665Z,90.61
2023-08-05T21:36:01.997Z,91.59
2023-08-05T21:38:31.042Z,92.06
2023-08-05T21:40:59.740Z,91.98
2023-08-05T21:43:28.534Z,92.97
2023-08-05T21:45:59.146Z,92.64
2023-08-05T21:48:31.107Z,93.34
2023-08-05T21:51:02.850Z,93.73
2023-08-05T21:53:31.685Z,94.22
2023-08-05T21:56:00.476Z,94.65
2023-08-05T21:58:29.238Z,95.20
2023-08-05T22:00:58.194Z,95.48
2023-08-05T22:03:28.817Z,95.57
2023-08-05T22:06:07.038Z,95.15
2023-08-05T22:08:35.754Z,95.60
2023-08-05T22:11:10.816Z,95.97
2023-08-05T22:13:39.657Z,96.53
2023-08-05T22:16:08.957Z,95.99
2023-08-05T22:18:38.039Z,96.38
2023-08-05T22:21:06.883Z,96.67
2023-08-05T22:23:35.570Z,96.85
2023-08-05T22:26:08.589Z,96.48
2023-08-05T22:28:37.411Z,96.09
2023-08-05T22:31:06.356Z,95.47
2023-08-05T22:33:35.041Z,94.93
2023-08-05T22:36:16.794Z,94.93
2023-08-05T22:38:47.353Z,95.88
2023-08-05T22:41:16.107Z,95.47
2023-08-05T22:43:44.923Z,96.35
2023-08-05T22:46:13.783Z,96.13
2023-08-05T22:48:44.006Z,95.90
2023-08-05T22:51:13.047Z,95.13
2023-08-05T22:53:46.278Z,95.68
2023-08-05T22:56:15.142Z,95.47
2023-08-05T22:58:44.090Z,96.31
2023-08-05T23:01:12.918Z,96.40
2023-08-05T23:03:42.462Z,96.49
2023-08-05T23:06:16.185Z,97.04
2023-08-05T23:08:46.072Z,97.59
2023-08-05T23:11:14.754Z,97.60
2023-08-05T23:13:43.570Z,97.40
2023-08-05T23:16:18.231Z,97.42
2023-08-05T23:18:50.826Z,98.13
2023-08-05T23:21:19.283Z,98.54
2023-08-05T23:23:48.170Z,98.63
2023-08-05T23:26:17.245Z,98.88
2023-08-05T23:28:45.917Z,98.91
2023-08-05T23:31:14.594Z,99.65
2023-08-05T23:33:43.285Z,100.00
2023-08-05T23:36:12.472Z,100.00
2023-08-05T23:38:41.204Z,100.00
2023-08-05T23:41:10.334Z,100.00
2023-08-05T23:43:39.130Z,100.00
2023-08-05T23:46:07.845Z,100.00
2023-08-05T23:48:36.565Z,100.00
2023-08-05T23:51:05.467Z,100.00
2023-08-05T23:53:34.181Z,100.00
2023-08-05T23:56:02.969Z,100.00
2023-08-05T23:58:31.622Z,100.00
